Time;durP1;ratioP1;P1;durP2;ratioP2;P2;SDS_P1;SDS_P2;PMS_P1;PMS_P2;Temp;Humidity;BMP_temperature;BMP_pressure;BME280_temperature;BME280_humidity;BME280_pressure;Samples;Min_cycle;Max_cycle;Signal;HPM_P1;HPM_P2
2021/08/03 04:38:19;;;;;;;6.47;4.35;;;;;;;15.43;73.59;99994.97;5026280;27;106198;-65
2021/08/03 04:40:44;;;;;;;7.28;4.40;;;;;;;15.61;74.30;99993.53;5027597;27;106131;-63
2021/08/03 04:43:09;;;;;;;7.10;4.55;;;;;;;15.80;73.84;99992.72;5024265;28;106277;-65
2021/08/03 04:45:35;;;;;;;8.75;4.50;;;;;;;16.00;73.91;99994.53;5025340;27;106073;-64
2021/08/03 04:48:00;;;;;;;7.05;4.45;;;;;;;16.20;73.90;99995.28;5024607;27;106239;-63
2021/08/03 04:50:28;;;;;;;6.30;4.47;;;;;;;16.36;73.37;99985.94;5026008;27;105893;-63
2021/08/03 04:52:55;;;;;;;6.60;4.85;;;;;;;16.49;72.98;99985.03;5025343;28;106629;-63
2021/08/03 04:55:20;;;;;;;5.80;4.28;;;;;;;16.62;72.60;99986.84;5024379;27;106735;-63
2021/08/03 04:57:46;;;;;;;5.97;4.05;;;;;;;16.70;72.20;99981.22;5022903;28;106751;-63
2021/08/03 05:00:14;;;;;;;5.75;4.65;;;;;;;16.80;72.23;99985.28;5024445;27;105941;-63
2021/08/03 05:02:41;;;;;;;7.55;5.00;;;;;;;16.83;71.67;99983.00;5025399;27;105771;-63
2021/08/03 05:05:09;;;;;;;6.38;3.88;;;;;;;16.87;71.71;99986.91;5025373;28;105987;-63
2021/08/03 05:07:34;;;;;;;7.22;5.05;;;;;;;16.88;71.38;99983.19;5024705;27;106562;-66
2021/08/03 05:10:05;;;;;;;7.30;4.25;;;;;;;16.98;71.25;99992.69;5025710;27;106328;-65
2021/08/03 05:12:32;;;;;;;6.20;3.97;;;;;;;17.04;71.27;99986.41;5024913;28;106247;-66
2021/08/03 05:15:00;;;;;;;6.32;4.28;;;;;;;17.16;71.08;99991.94;5024837;27;106302;-66
2021/08/03 05:17:30;;;;;;;6.57;4.03;;;;;;;17.24;70.79;99992.47;5024560;27;106629;-66
2021/08/03 05:19:56;;;;;;;5.43;4.13;;;;;;;17.31;70.60;99991.59;5025864;27;106402;-66
2021/08/03 05:22:23;;;;;;;5.13;4.13;;;;;;;17.37;70.23;99996.09;5022661;28;106143;-68
2021/08/03 05:24:49;;;;;;;7.38;4.32;;;;;;;17.48;70.41;100000.78;5004523;28;106879;-66
2021/08/03 05:27:14;;;;;;;5.40;4.40;;;;;;;17.54;69.91;99999.91;5004486;28;105850;-65
2021/08/03 05:29:39;;;;;;;5.30;3.60;;;;;;;17.63;69.69;99997.72;5004958;28;106269;-66
2021/08/03 05:32:05;;;;;;;6.35;3.70;;;;;;;17.71;69.44;100005.53;5004645;28;106171;-66
2021/08/03 05:34:31;;;;;;;5.03;4.00;;;;;;;17.81;69.27;100005.03;5004199;28;105880;-66
2021/08/03 05:36:56;;;;;;;4.90;3.78;;;;;;;17.90;69.00;100000.19;5003761;28;106569;-65
2021/08/03 05:39:21;;;;;;;5.60;4.22;;;;;;;17.95;68.38;100002.22;5005053;28;106076;-64
2021/08/03 05:41:47;;;;;;;5.22;3.33;;;;;;;18.00;68.19;99997.84;5011975;28;106155;-65
2021/08/03 05:44:12;;;;;;;5.45;4.15;;;;;;;18.07;68.00;99997.72;5024121;28;106363;-66
2021/08/03 05:46:37;;;;;;;5.82;4.97;;;;;;;18.11;67.91;99990.84;5024298;27;106028;-65
2021/08/03 05:49:03;;;;;;;7.63;4.63;;;;;;;18.15;67.64;99997.47;5015573;27;106115;-66
2021/08/03 05:51:29;;;;;;;6.93;4.28;;;;;;;18.05;67.22;100003.34;5011191;28;106132;-66
2021/08/03 05:53:54;;;;;;;6.30;4.57;;;;;;;17.99;67.71;99998.03;5010892;28;107102;-64
2021/08/03 05:56:19;;;;;;;7.88;4.07;;;;;;;17.88;67.40;99995.00;5009888;28;112084;-67
2021/08/03 05:58:45;;;;;;;7.60;4.43;;;;;;;17.82;67.60;99995.88;5011612;28;106064;-66
2021/08/03 06:01:10;;;;;;;5.75;4.40;;;;;;;17.74;67.78;99997.03;5010825;28;106131;-67
2021/08/03 06:03:36;;;;;;;6.80;5.00;;;;;;;17.72;67.75;99996.41;5010708;28;106183;-67
2021/08/03 06:06:05;;;;;;;6.43;4.63;;;;;;;17.73;67.97;100006.16;5010560;28;105893;-66
2021/08/03 06:08:31;;;;;;;7.68;4.43;;;;;;;17.78;68.03;100002.78;5011439;28;105878;-64
2021/08/03 06:10:58;;;;;;;6.38;4.80;;;;;;;17.91;68.28;100010.75;5010567;28;106189;-66
2021/08/03 06:13:26;;;;;;;6.55;4.80;;;;;;;18.07;68.42;100006.66;5010621;28;106283;-66
2021/08/03 06:15:52;;;;;;;7.88;4.00;;;;;;;18.28;68.19;100001.88;5010083;28;106130;-66
2021/08/03 06:18:35;;;;;;;5.50;4.10;;;;;;;18.52;68.35;99996.59;5011328;28;106036;-66
2021/08/03 06:21:01;;;;;;;6.90;3.88;;;;;;;18.74;67.82;99989.66;5010662;28;105919;-66
2021/08/03 06:23:27;;;;;;;4.85;3.10;;;;;;;18.93;67.03;99993.16;5010434;28;106020;-67
2021/08/03 06:25:55;;;;;;;6.40;2.92;;;;;;;19.11;66.99;100000.34;5009945;28;105968;-67
2021/08/03 06:28:23;;;;;;;5.70;2.80;;;;;;;19.32;65.99;99997.34;5010851;28;105998;-65
2021/08/03 06:30:49;;;;;;;3.70;2.70;;;;;;;19.48;65.34;99995.81;5010448;28;106214;-64
2021/08/03 06:33:20;;;;;;;3.80;2.55;;;;;;;19.59;64.95;99995.81;5009988;28;105743;-64
2021/08/03 06:35:46;;;;;;;3.70;2.40;;;;;;;19.78;64.41;100003.81;5010127;28;106257;-65
2021/08/03 06:38:12;;;;;;;5.10;2.55;;;;;;;19.95;63.76;100004.75;5010044;28;105963;-65
2021/08/03 06:40:45;;;;;;;3.55;2.40;;;;;;;20.15;63.50;100010.84;5010489;28;105821;-67
2021/08/03 06:43:15;;;;;;;5.47;2.75;;;;;;;20.21;61.72;100005.31;5009715;28;105974;-65
2021/08/03 06:45:42;;;;;;;12.27;3.67;;;;;;;20.35;62.00;100002.34;5009874;28;106332;-63
2021/08/03 06:48:13;;;;;;;5.40;2.70;;;;;;;20.49;61.05;99992.91;5010050;28;106156;-65
2021/08/03 06:50:49;;;;;;;3.65;2.47;;;;;;;20.71;60.98;99989.53;5010685;28;105835;-65
2021/08/03 06:53:15;;;;;;;3.85;2.40;;;;;;;20.93;60.49;99993.19;5009756;28;105776;-64
2021/08/03 06:55:42;;;;;;;3.33;2.10;;;;;;;21.13;59.87;99995.44;5009502;28;105941;-65
2021/08/03 06:58:11;;;;;;;3.00;2.22;;;;;;;21.33;59.67;99996.03;5010496;28;105888;-64
2021/08/03 07:00:42;;;;;;;3.22;2.33;;;;;;;21.35;58.25;99996.59;5008734;28;105827;-64
2021/08/03 07:03:08;;;;;;;3.13;2.28;;;;;;;21.38;57.92;99998.78;5009403;28;106724;-63
2021/08/03 07:05:37;;;;;;;3.88;2.17;;;;;;;21.30;57.19;99998.16;5009162;28;106032;-63
2021/08/03 07:08:03;;;;;;;4.22;2.40;;;;;;;21.45;57.78;99994.84;5009875;28;105998;-64
2021/08/03 07:10:29;;;;;;;4.47;2.53;;;;;;;21.63;57.23;100001.94;5009948;28;106181;-66
2021/08/03 07:12:55;;;;;;;3.95;2.40;;;;;;;21.74;56.57;99999.38;5009060;28;105769;-67
2021/08/03 07:15:25;;;;;;;5.15;2.47;;;;;;;21.98;56.62;99998.09;5008947;28;105998;-64
2021/08/03 07:17:50;;;;;;;4.40;2.13;;;;;;;22.18;55.81;100002.13;5009094;28;106150;-65
2021/08/03 07:20:16;;;;;;;3.88;2.85;;;;;;;22.36;55.17;100001.03;5009390;28;106112;-65
2021/08/03 07:22:42;;;;;;;4.50;2.60;;;;;;;22.37;53.89;100005.38;5009400;28;105942;-64
2021/08/03 07:25:09;;;;;;;6.75;2.33;;;;;;;22.22;53.41;99999.75;5009175;28;106037;-67
2021/08/03 07:27:35;;;;;;;6.00;2.88;;;;;;;22.15;53.25;100000.75;5010042;28;106011;-65
2021/08/03 07:30:01;;;;;;;4.00;2.45;;;;;;;22.09;53.46;100003.66;5009393;28;106170;-64
2021/08/03 07:32:26;;;;;;;5.00;2.80;;;;;;;22.19;53.42;100001.06;5009021;28;106040;-64
2021/08/03 07:34:52;;;;;;;4.63;2.72;;;;;;;22.30;53.26;100008.25;5009072;28;106219;-68
2021/08/03 07:37:17;;;;;;;5.68;2.45;;;;;;;22.41;52.80;100011.94;5009252;28;105954;-66
2021/08/03 07:39:43;;;;;;;5.47;2.40;;;;;;;22.54;52.39;100005.31;5008731;28;106227;-66
2021/08/03 07:42:08;;;;;;;3.35;2.28;;;;;;;22.68;51.98;100004.91;5008506;28;105981;-63
2021/08/03 07:44:35;;;;;;;5.05;2.83;;;;;;;22.89;51.40;100004.03;5008872;28;106064;-62
2021/08/03 07:47:00;;;;;;;3.97;2.55;;;;;;;22.85;50.40;100005.63;5009789;28;105847;-64
2021/08/03 07:49:26;;;;;;;4.18;3.00;;;;;;;22.67;50.19;100006.81;5009393;28;106184;-66
2021/08/03 07:51:52;;;;;;;3.95;2.50;;;;;;;22.70;50.81;100013.63;5008447;28;105944;-64
2021/08/03 07:54:18;;;;;;;7.25;2.88;;;;;;;22.76;50.24;100001.75;5008820;28;106314;-62
2021/08/03 11:23:21;;;;;;;2.90;1.52;;;;;;;28.16;33.92;99923.19;4987189;28;105879;-67
2021/08/03 11:25:48;;;;;;;3.40;1.40;;;;;;;27.98;34.70;99919.25;4984654;28;105898;-67
2021/08/03 11:28:17;;;;;;;2.25;1.65;;;;;;;28.40;35.05;99912.13;4985681;28;106109;-67
2021/08/03 11:30:45;;;;;;;4.32;2.72;;;;;;;28.66;34.27;99918.06;4985201;28;106005;-66
2021/08/03 11:33:12;;;;;;;3.03;1.30;;;;;;;28.90;33.32;99916.31;4984885;28;106046;-71
2021/08/03 11:35:38;;;;;;;2.53;1.58;;;;;;;28.44;32.74;99917.84;4985560;28;106229;-68
2021/08/03 11:38:09;;;;;;;1.50;1.20;;;;;;;28.18;33.46;99913.53;4985375;28;106259;-68
2021/08/03 11:40:36;;;;;;;4.82;1.55;;;;;;;28.58;33.23;99905.00;4984270;28;106395;-67
2021/08/03 11:43:02;;;;;;;9.88;3.60;;;;;;;28.80;32.85;99907.19;4984442;28;106065;-65
2021/08/03 11:45:27;;;;;;;3.35;1.40;;;;;;;28.92;33.07;99906.69;4985672;28;105826;-65
2021/08/03 11:47:56;;;;;;;2.60;1.75;;;;;;;29.21;32.65;99900.97;4984924;28;106579;-65
2021/08/03 11:50:30;;;;;;;2.15;1.50;;;;;;;29.57;32.28;99904.19;4983970;28;106064;-68
2021/08/03 11:53:12;;;;;;;2.92;1.58;;;;;;;29.53;32.16;99902.06;4984176;28;106013;-72
2021/08/03 11:55:40;;;;;;;2.33;1.30;;;;;;;29.42;32.01;99899.81;4982914;28;106113;-71
2021/08/03 11:58:06;;;;;;;3.15;1.45;;;;;;;29.23;32.12;99891.66;4985261;28;106665;-71
2021/08/03 12:00:33;;;;;;;1.17;0.98;;;;;;;28.97;32.37;99892.09;4984948;28;105886;-73
2021/08/03 12:03:00;;;;;;;3.22;1.25;;;;;;;28.99;32.26;99887.94;4984307;28;106015;-73
2021/08/03 12:05:31;;;;;;;2.10;1.10;;;;;;;28.82;32.14;99882.22;4982759;28;105996;-69
2021/08/03 12:07:57;;;;;;;6.35;2.05;;;;;;;28.52;32.31;99871.41;4980231;28;106651;-64
2021/08/03 12:10:26;;;;;;;3.40;1.20;;;;;;;28.47;32.52;99867.94;4983716;28;106045;-65
2021/08/03 12:12:52;;;;;;;1.38;1.05;;;;;;;28.27;32.95;99875.38;4983623;28;106031;-68
2021/08/03 12:15:20;;;;;;;3.45;1.60;;;;;;;27.75;33.32;99882.59;4985694;28;106084;-66
2021/08/03 12:17:46;;;;;;;3.22;1.38;;;;;;;27.40;33.76;99881.94;4984242;28;106239;-64
2021/08/03 12:20:26;;;;;;;1.70;1.02;;;;;;;26.94;34.24;99880.41;4983712;28;106929;-65
2021/08/03 12:22:52;;;;;;;3.30;1.90;;;;;;;26.54;34.95;99871.44;4981749;28;106043;-64
2021/08/03 12:25:18;;;;;;;2.15;1.35;;;;;;;26.24;35.12;99876.00;4982979;28;106424;-67
2021/08/03 12:27:45;;;;;;;2.50;1.20;;;;;;;26.01;35.88;99881.00;4982811;28;106182;-67
2021/08/03 12:30:34;;;;;;;4.57;1.73;;;;;;;25.73;36.38;99877.88;4969497;28;106657;-67
2021/08/03 12:33:00;;;;;;;2.05;1.58;;;;;;;25.60;36.93;99886.66;4960330;28;106067;-66
2021/08/03 12:35:25;;;;;;;5.80;1.55;;;;;;;25.39;37.28;99889.44;4951980;28;105897;-66
2021/08/03 12:37:51;;;;;;;6.82;2.00;;;;;;;25.16;38.26;99897.09;4951780;28;106581;-70
2021/08/03 12:40:46;;;;;;;2.63;1.50;;;;;;;24.77;39.94;99899.56;4955022;28;105904;-69
2021/08/03 12:43:11;;;;;;;5.25;1.80;;;;;;;24.50;41.17;99904.13;4969455;28;106117;-65
2021/08/03 12:45:38;;;;;;;3.15;1.30;;;;;;;24.26;42.19;99909.28;4971721;28;105973;-67
2021/08/03 12:48:07;;;;;;;2.80;1.10;;;;;;;24.16;42.79;99912.75;4971056;28;106111;-67
2021/08/03 12:50:46;;;;;;;3.50;1.10;;;;;;;24.12;43.04;99913.56;4970936;28;106409;-67
2021/08/03 12:53:22;;;;;;;3.05;1.50;;;;;;;24.22;43.58;99912.78;4970833;28;105822;-64
2021/08/03 12:55:55;;;;;;;4.03;1.60;;;;;;;24.53;43.94;99889.16;4971319;28;105692;-70
2021/08/03 12:58:34;;;;;;;3.20;1.33;;;;;;;24.91;43.94;99876.13;4952788;28;106081;-68
2021/08/03 13:53:40;;;;;;;1.77;0.40;;;;;;;26.71;36.86;99800.03;5007548;28;106314;-64
2021/08/03 13:56:08;;;;;;;1.15;0.65;;;;;;;26.74;36.15;99789.34;5006601;28;105898;-66
2021/08/03 13:58:34;;;;;;;0.75;0.43;;;;;;;26.75;35.53;99780.06;5020452;27;106096;-67
2021/08/03 14:01:00;;;;;;;2.20;0.47;;;;;;;26.85;35.01;99790.06;5012698;28;106116;-66
2021/08/03 14:03:25;;;;;;;3.90;0.70;;;;;;;26.96;34.85;99790.78;5012741;28;105863;-66
2021/08/03 14:05:50;;;;;;;1.20;0.88;;;;;;;27.02;34.92;99784.13;5020949;28;105841;-66
2021/08/03 14:08:16;;;;;;;1.38;0.50;;;;;;;27.08;35.03;99784.88;5008462;27;106213;-67
2021/08/03 14:10:41;;;;;;;0.60;0.40;;;;;;;27.01;34.95;99786.06;5019182;27;105934;-66
2021/08/03 14:13:06;;;;;;;1.13;0.65;;;;;;;26.96;35.10;99780.66;5012061;28;106658;-66
2021/08/03 14:15:32;;;;;;;1.00;0.70;;;;;;;26.98;35.17;99778.44;5013004;27;105945;-66
2021/08/03 14:17:57;;;;;;;1.75;0.50;;;;;;;27.01;35.12;99772.41;5020855;28;106403;-65
2021/08/03 14:20:22;;;;;;;2.35;0.60;;;;;;;27.01;35.36;99777.88;5007822;28;107367;-68
2021/08/03 14:22:48;;;;;;;1.15;0.77;;;;;;;27.02;34.89;99771.31;5018046;27;106315;-66
2021/08/03 14:25:13;;;;;;;1.20;0.50;;;;;;;26.93;34.59;99770.31;5015336;28;106286;-66
2021/08/03 14:27:39;;;;;;;1.45;0.70;;;;;;;26.84;34.59;99759.16;5011172;27;106206;-67
2021/08/03 14:30:05;;;;;;;1.35;0.70;;;;;;;26.82;34.79;99763.31;5021118;28;105902;-67
2021/08/03 14:32:30;;;;;;;1.55;0.70;;;;;;;26.81;34.75;99751.56;5008870;28;105910;-66
2021/08/03 14:34:56;;;;;;;1.20;0.65;;;;;;;26.74;34.45;99756.56;5017387;27;106140;-66
2021/08/03 14:37:21;;;;;;;0.98;0.60;;;;;;;26.69;34.43;99751.09;5010362;28;106081;-62
2021/08/03 14:39:47;;;;;;;2.10;0.70;;;;;;;26.69;34.33;99751.91;5005555;27;106823;-64
2021/08/03 14:42:12;;;;;;;3.90;0.77;;;;;;;26.66;34.48;99744.31;5004456;28;106242;-66
2021/08/03 14:44:37;;;;;;;1.85;0.70;;;;;;;26.64;34.65;99741.06;5005178;28;105861;-66
2021/08/03 14:47:03;;;;;;;1.33;0.77;;;;;;;26.64;34.59;99734.75;5004707;28;106227;-65
2021/08/03 14:49:28;;;;;;;1.08;0.70;;;;;;;26.60;34.53;99731.81;5004152;28;106419;-66
2021/08/03 14:51:54;;;;;;;1.25;0.90;;;;;;;26.53;34.76;99739.50;5003708;28;105943;-65
2021/08/03 14:54:20;;;;;;;1.42;0.80;;;;;;;26.51;34.66;99741.72;5005198;28;105931;-66
2021/08/03 14:56:45;;;;;;;0.70;0.65;;;;;;;26.51;35.07;99741.72;5004252;28;106376;-66
2021/08/03 14:59:11;;;;;;;1.65;1.15;;;;;;;26.54;35.48;99741.16;5004398;28;106016;-65
2021/08/03 15:01:39;;;;;;;1.63;0.70;;;;;;;26.57;35.25;99734.28;5004283;28;106054;-68
2021/08/03 15:04:06;;;;;;;2.83;0.70;;;;;;;26.62;35.50;99743.25;4996727;28;106116;-68
2021/08/03 15:06:31;;;;;;;1.17;0.80;;;;;;;26.67;35.48;99745.94;4990921;28;106262;-64
2021/08/03 15:08:56;;;;;;;2.22;0.80;;;;;;;26.80;35.45;99749.13;4990756;28;106469;-65
2021/08/03 15:11:23;;;;;;;6.35;1.20;;;;;;;26.94;35.04;99746.50;4989600;28;106025;-68
2021/08/03 15:13:49;;;;;;;4.40;1.02;;;;;;;26.99;35.17;99744.53;4991837;28;105944;-66
2021/08/03 15:16:16;;;;;;;1.77;1.05;;;;;;;27.00;35.23;99739.88;4990114;28;106193;-64
2021/08/03 15:18:41;;;;;;;2.58;0.80;;;;;;;26.96;35.43;99736.91;4989816;28;106294;-63
2021/08/03 15:21:07;;;;;;;4.57;1.00;;;;;;;26.91;35.22;99741.63;4988917;28;106629;-63
2021/08/03 15:23:32;;;;;;;2.72;0.80;;;;;;;26.87;35.41;99735.91;4990808;28;106037;-64
2021/08/03 15:25:58;;;;;;;2.20;0.80;;;;;;;26.89;35.42;99736.47;4990931;28;106312;-65
2021/08/03 15:28:23;;;;;;;2.97;1.10;;;;;;;26.92;35.36;99735.06;4990482;28;106097;-65
2021/08/03 15:30:48;;;;;;;2.67;1.00;;;;;;;26.85;35.14;99736.22;4990602;28;105677;-66
2021/08/03 15:33:14;;;;;;;1.98;0.98;;;;;;;26.80;35.25;99738.19;4991293;28;106025;-65
2021/08/03 15:35:39;;;;;;;1.67;0.90;;;;;;;26.72;35.22;99734.16;4989649;28;106247;-66
2021/08/03 15:38:05;;;;;;;2.38;1.17;;;;;;;26.66;35.32;99736.09;4990612;28;105977;-66
2021/08/03 15:40:31;;;;;;;2.58;0.88;;;;;;;26.60;35.63;99731.81;4990671;28;105918;-66
2021/08/03 15:42:57;;;;;;;2.13;0.85;;;;;;;26.48;35.75;99731.38;4991260;28;106046;-65
2021/08/03 15:45:22;;;;;;;3.25;1.08;;;;;;;26.33;35.93;99732.34;4990345;28;105959;-64
2021/08/03 15:47:48;;;;;;;2.15;1.20;;;;;;;26.21;36.06;99738.16;4990237;28;105825;-65
2021/08/03 15:50:13;;;;;;;1.77;1.10;;;;;;;26.05;36.40;99731.19;4990095;28;105973;-66
2021/08/03 15:52:39;;;;;;;3.05;1.13;;;;;;;25.92;36.80;99733.44;4990408;28;106016;-65
2021/08/03 15:55:05;;;;;;;3.33;1.17;;;;;;;25.83;37.11;99727.78;4990267;28;105801;-66
2021/08/03 15:57:31;;;;;;;2.78;1.17;;;;;;;25.75;37.40;99728.38;4990053;28;105960;-65
2021/08/03 15:59:56;;;;;;;1.67;0.93;;;;;;;25.66;37.35;99730.88;4989870;28;106697;-65
2021/08/03 16:02:21;;;;;;;2.17;0.98;;;;;;;25.59;37.31;99729.56;4991022;28;105879;-65
2021/08/03 16:04:47;;;;;;;2.45;1.15;;;;;;;25.47;37.55;99741.63;4990098;28;105716;-65
2021/08/03 16:07:12;;;;;;;2.97;1.10;;;;;;;25.34;37.48;99743.06;4989754;28;106704;-65
2021/08/03 16:09:37;;;;;;;2.05;1.30;;;;;;;25.27;38.04;99745.22;4990029;28;105915;-65
2021/08/03 16:12:03;;;;;;;4.13;1.27;;;;;;;25.21;38.00;99743.63;4990660;28;105840;-65
2021/08/03 16:14:28;;;;;;;2.95;0.98;;;;;;;25.17;37.95;99746.06;4989883;28;106275;-65
2021/08/03 16:17:01;;;;;;;4.78;1.25;;;;;;;25.12;38.34;99746.13;4988805;28;106129;-65
2021/08/03 16:19:26;;;;;;;3.83;1.50;;;;;;;25.09;38.59;99734.94;4990034;28;105904;-63
2021/08/03 16:21:52;;;;;;;3.00;1.20;;;;;;;25.04;38.47;99737.69;4990595;28;105870;-65
2021/08/03 16:24:17;;;;;;;3.72;1.17;;;;;;;24.97;38.66;99736.09;4989633;28;106164;-65
2021/08/03 16:26:44;;;;;;;4.45;1.02;;;;;;;24.89;38.85;99736.66;4989033;28;106730;-64
2021/08/03 16:29:09;;;;;;;6.45;1.20;;;;;;;24.81;39.16;99734.50;4989241;28;106006;-65
2021/08/03 16:31:37;;;;;;;2.88;1.17;;;;;;;24.72;39.42;99730.69;4989687;28;105986;-65
2021/08/03 16:34:09;;;;;;;2.58;1.00;;;;;;;24.59;39.24;99738.31;4989653;28;106011;-66
2021/08/03 16:36:36;;;;;;;3.75;1.10;;;;;;;24.46;39.67;99733.44;4988895;28;106100;-65
2021/08/03 16:39:04;;;;;;;2.75;1.00;;;;;;;24.35;39.57;99726.38;4988481;28;106039;-65
2021/08/03 16:41:33;;;;;;;4.50;1.20;;;;;;;24.26;39.80;99729.63;4989703;28;106296;-66
2021/08/03 16:43:58;;;;;;;1.73;1.10;;;;;;;24.16;40.11;99727.72;4988705;28;105716;-66
2021/08/03 16:46:24;;;;;;;2.17;1.38;;;;;;;24.09;40.56;99734.53;4989214;28;105803;-65
2021/08/03 16:48:50;;;;;;;6.68;1.40;;;;;;;24.01;40.95;99730.44;4988784;28;105994;-65
2021/08/03 16:51:20;;;;;;;2.25;1.30;;;;;;;23.91;41.29;99731.25;4989759;28;106209;-65
2021/08/03 16:53:46;;;;;;;1.38;1.10;;;;;;;23.83;41.57;99738.00;4989214;28;106326;-65
2021/08/03 16:56:17;;;;;;;2.65;1.42;;;;;;;23.72;42.29;99740.97;4989367;28;106297;-66
2021/08/03 16:58:42;;;;;;;3.85;1.67;;;;;;;23.58;43.14;99740.66;4988991;28;106204;-66
2021/08/03 17:01:14;;;;;;;5.75;1.75;;;;;;;23.42;44.02;99748.75;4990190;28;106007;-66
2021/08/03 17:03:43;;;;;;;8.90;2.38;;;;;;;23.22;44.32;99773.94;4989359;28;105959;-66
2021/08/03 17:06:22;;;;;;;3.25;1.63;;;;;;;22.88;46.22;99801.47;4988910;28;106804;-67
2021/08/03 17:09:07;;;;;;;4.82;2.03;;;;;;;22.40;47.32;99805.97;4989200;28;106028;-67
2021/08/03 17:11:57;;;;;;;4.50;2.42;;;;;;;21.80;48.72;99800.47;4990170;28;105861;-68
2021/08/03 17:14:27;;;;;;;5.25;2.25;;;;;;;21.32;50.46;99812.88;4989385;28;105786;-66
2021/08/03 17:16:59;;;;;;;3.35;2.10;;;;;;;20.92;51.22;99833.69;4988980;28;106463;-68
2021/08/03 17:19:26;;;;;;;4.18;2.10;;;;;;;20.55;52.20;99840.38;4988716;28;106082;-65
2021/08/03 17:21:54;;;;;;;11.07;3.33;;;;;;;20.32;53.29;99832.41;4989695;28;105873;-65
2021/08/03 17:24:37;;;;;;;6.15;2.45;;;;;;;20.08;53.93;99832.50;4989136;28;106566;-66
2021/08/03 17:27:04;;;;;;;3.45;2.00;;;;;;;19.81;54.82;99835.81;4988687;28;105793;-67
2021/08/03 17:29:30;;;;;;;6.90;2.03;;;;;;;19.59;55.36;99830.19;4988798;28;106424;-66
2021/08/03 17:31:57;;;;;;;4.47;1.80;;;;;;;19.46;56.10;99817.75;4989214;28;106127;-66
2021/08/03 17:34:23;;;;;;;3.65;1.95;;;;;;;19.34;56.55;99808.88;4988789;28;106249;-65
2021/08/03 17:36:52;;;;;;;2.42;1.73;;;;;;;19.24;56.89;99812.16;4987982;28;106129;-67
2021/08/03 17:39:21;;;;;;;4.97;1.90;;;;;;;19.15;57.32;99817.13;4988549;28;106041;-64
2021/08/03 17:41:49;;;;;;;2.22;1.40;;;;;;;19.06;57.80;99818.53;4989452;28;105818;-65
2021/08/03 17:44:15;;;;;;;4.60;1.55;;;;;;;18.94;57.82;99823.91;4988999;28;106352;-65
2021/08/03 17:46:44;;;;;;;3.88;1.58;;;;;;;18.89;58.16;99824.63;4988573;28;106618;-65
2021/08/03 17:49:14;;;;;;;1.77;1.13;;;;;;;18.79;58.54;99840.53;4988427;28;106092;-65
2021/08/03 17:51:42;;;;;;;5.50;1.52;;;;;;;18.74;58.93;99837.72;4987751;28;106078;-65
2021/08/03 17:54:09;;;;;;;3.85;1.52;;;;;;;18.65;59.05;99829.16;4988949;28;105840;-65
2021/08/03 17:56:38;;;;;;;4.35;1.40;;;;;;;18.58;59.46;99833.84;4988292;28;106521;-65
2021/08/03 17:59:06;;;;;;;2.03;0.98;;;;;;;18.47;59.84;99819.28;4987697;28;105971;-65
2021/08/03 18:01:31;;;;;;;2.83;1.33;;;;;;;18.46;60.06;99831.09;4988887;28;105979;-65
2021/08/03 18:03:57;;;;;;;3.15;1.50;;;;;;;18.42;60.23;99822.63;4987826;28;105991;-65
2021/08/03 18:06:23;;;;;;;3.05;0.90;;;;;;;18.35;60.28;99821.94;4987254;28;106794;-65
2021/08/03 18:08:49;;;;;;;2.15;1.00;;;;;;;18.22;60.57;99825.66;4986707;28;105927;-66
2021/08/03 18:11:15;;;;;;;2.22;1.20;;;;;;;18.13;60.93;99827.03;4988060;28;106484;-66
2021/08/03 18:13:45;;;;;;;2.55;1.08;;;;;;;18.07;61.04;99827.94;4987725;28;106128;-67
2021/08/03 18:16:14;;;;;;;3.97;2.10;;;;;;;17.92;61.10;99826.47;4987105;28;106450;-66
2021/08/03 18:18:40;;;;;;;2.10;1.10;;;;;;;17.79;61.41;99823.91;4987436;28;106292;-66
2021/08/03 18:21:05;;;;;;;1.70;1.10;;;;;;;17.70;61.68;99818.03;4988579;28;105921;-67
2021/08/03 18:23:31;;;;;;;4.60;1.10;;;;;;;17.59;62.00;99816.91;4986807;28;106120;-66
2021/08/03 18:26:03;;;;;;;3.22;1.05;;;;;;;17.43;62.01;99825.59;4987619;28;105920;-66
2021/08/03 18:28:33;;;;;;;2.33;1.13;;;;;;;17.30;62.73;99820.34;4987381;28;106081;-66
2021/08/03 18:31:25;;;;;;;3.28;1.13;;;;;;;17.14;62.64;99816.38;4988030;28;106033;-64
2021/08/03 18:34:09;;;;;;;1.65;1.00;;;;;;;16.97;63.18;99813.44;4986157;28;106018;-65
2021/08/03 18:36:37;;;;;;;2.97;1.23;;;;;;;16.79;63.75;99816.88;4987611;28;106566;-64
2021/08/03 18:39:03;;;;;;;4.35;1.40;;;;;;;16.63;64.14;99810.19;4988802;28;106300;-64
2021/08/03 18:41:34;;;;;;;2.78;1.13;;;;;;;16.52;64.41;99809.03;4992119;28;106181;-67
2021/08/03 18:44:05;;;;;;;2.88;1.40;;;;;;;16.42;64.76;99806.84;4991210;28;106361;-66
2021/08/03 18:46:32;;;;;;;3.47;1.38;;;;;;;16.31;64.72;99804.84;4991033;28;106562;-64
2021/08/03 18:48:59;;;;;;;2.60;1.42;;;;;;;16.16;65.36;99810.53;4987783;28;106144;-65
2021/08/03 18:51:25;;;;;;;4.70;1.50;;;;;;;16.06;65.41;99810.97;4989886;28;106071;-65
2021/08/03 18:53:51;;;;;;;1.77;1.05;;;;;;;15.99;66.04;99811.03;4989469;28;105935;-64
2021/08/03 18:56:17;;;;;;;1.60;1.10;;;;;;;15.90;66.20;99821.19;4989085;28;107921;-65
2021/08/03 18:58:42;;;;;;;3.08;1.55;;;;;;;15.79;66.12;99819.16;4989267;28;105940;-65
2021/08/03 19:01:10;;;;;;;2.25;1.30;;;;;;;15.70;66.48;99815.06;4989627;28;106159;-65
2021/08/03 19:03:38;;;;;;;1.73;1.17;;;;;;;15.62;66.93;99810.75;4989368;28;106247;-66
2021/08/03 19:06:16;;;;;;;3.33;1.60;;;;;;;15.56;67.59;99814.28;4989069;28;106140;-66
2021/08/03 19:09:07;;;;;;;3.60;1.48;;;;;;;15.53;68.01;99820.09;4989408;28;106071;-66
2021/08/03 19:11:36;;;;;;;3.92;1.58;;;;;;;15.50;67.88;99813.28;4986526;28;106129;-64
2021/08/03 19:14:04;;;;;;;2.75;1.40;;;;;;;15.47;68.12;99821.72;4989135;28;106209;-65
2021/08/03 19:16:34;;;;;;;2.58;1.55;;;;;;;15.42;68.50;99812.66;4988870;28;106129;-64
2021/08/03 19:19:08;;;;;;;3.28;2.10;;;;;;;15.37;68.39;99821.38;4988403;28;106100;-64
2021/08/03 19:21:45;;;;;;;13.75;10.40;;;;;;;15.34;68.85;99821.81;4989307;28;106562;-64
2021/08/03 19:24:12;;;;;;;7.55;3.10;;;;;;;15.28;69.18;99834.22;4988836;28;106096;-65
2021/08/03 19:26:38;;;;;;;3.30;1.60;;;;;;;15.24;69.11;99835.66;4988134;28;105936;-64
2021/08/03 19:29:04;;;;;;;1.95;1.45;;;;;;;15.20;69.22;99837.13;4988293;28;106268;-64
2021/08/03 19:31:30;;;;;;;3.92;1.90;;;;;;;15.16;69.35;99844.75;4989367;28;106013;-64
2021/08/03 19:33:55;;;;;;;3.45;1.50;;;;;;;15.12;69.84;99848.88;4988841;28;106122;-64
2021/08/03 19:36:20;;;;;;;4.40;1.73;;;;;;;15.09;70.09;99849.31;4988659;28;105971;-64
2021/08/03 19:38:49;;;;;;;6.57;1.40;;;;;;;15.07;70.19;99846.81;4987852;28;106669;-64
2021/08/03 19:41:14;;;;;;;2.97;1.52;;;;;;;15.06;70.13;99847.00;4989729;28;106026;-64
2021/08/03 19:43:40;;;;;;;3.67;1.40;;;;;;;15.03;70.53;99850.13;4988966;28;106269;-64
2021/08/03 19:46:06;;;;;;;2.00;1.30;;;;;;;15.00;70.42;99864.75;4988765;28;105933;-65
2021/08/03 19:48:36;;;;;;;2.55;1.52;;;;;;;14.98;70.67;99860.63;4987953;28;106442;-65
2021/08/03 19:51:02;;;;;;;2.80;1.47;;;;;;;14.91;70.72;99857.97;4988925;28;106761;-64
2021/08/03 19:53:29;;;;;;;3.05;1.60;;;;;;;14.82;70.78;99870.75;4988392;28;106566;-64
2021/08/03 19:55:57;;;;;;;2.22;1.23;;;;;;;14.73;70.74;99871.97;4988254;28;107392;-65
2021/08/03 19:58:24;;;;;;;3.85;1.60;;;;;;;14.64;70.68;99875.88;4988398;28;105976;-65
2021/08/03 20:00:51;;;;;;;1.92;1.20;;;;;;;14.53;71.53;99880.81;4988741;28;106023;-64
2021/08/03 20:03:17;;;;;;;1.88;1.30;;;;;;;14.40;71.72;99880.78;4988729;28;106390;-64
2021/08/03 20:05:44;;;;;;;3.22;1.70;;;;;;;14.28;72.20;99877.03;4988438;28;105883;-64
2021/08/03 20:08:14;;;;;;;4.68;1.90;;;;;;;14.20;72.44;99880.72;4988154;28;106558;-65
2021/08/03 20:10:39;;;;;;;2.47;1.77;;;;;;;14.15;72.64;99878.66;4988730;28;106037;-66
2021/08/03 20:13:06;;;;;;;2.83;1.80;;;;;;;14.16;72.97;99874.97;4987338;28;106041;-66
2021/08/03 20:15:31;;;;;;;3.22;1.92;;;;;;;14.17;73.26;99876.59;4987393;28;106589;-64
2021/08/03 20:17:58;;;;;;;4.75;1.98;;;;;;;14.16;73.34;99880.31;4987996;28;106134;-65
2021/08/03 20:20:25;;;;;;;3.20;2.13;;;;;;;14.16;73.35;99880.31;4988734;28;105949;-64
2021/08/03 20:22:51;;;;;;;4.88;2.50;;;;;;;14.19;73.79;99873.72;4987999;28;106347;-64